createdAt,value
2017-11-19T00:02:15.187Z,29.63
2017-11-19T00:04:43.516Z,30.37
2017-11-19T00:07:13.056Z,29.13
2017-11-19T00:09:41.467Z,29.60
2017-11-19T00:12:09.987Z,29.80
2017-11-19T00:14:39.582Z,28.33
2017-11-19T00:17:08.185Z,31.67
2017-11-19T00:19:36.732Z,31.87
2017-11-19T00:22:05.085Z,30.27
2017-11-19T00:24:34.379Z,27.33
2017-11-19T00:27:02.738Z,33.40
2017-11-19T00:29:31.212Z,26.40
2017-11-19T00:31:59.072Z,27.90
2017-11-19T00:34:28.432Z,24.17
2017-11-19T00:36:56.763Z,23.43
2017-11-19T00:39:26.047Z,20.13
2017-11-19T00:41:54.220Z,19.47
2017-11-19T00:44:22.639Z,21.37
2017-11-19T00:46:52.509Z,25.20
2017-11-19T00:49:21.088Z,18.97
2017-11-19T00:51:49.859Z,19.10
2017-11-19T00:54:19.125Z,18.00
2017-11-19T00:56:47.648Z,20.93
2017-11-19T00:59:15.996Z,19.33
2017-11-19T01:01:44.336Z,18.37
2017-11-19T01:04:12.682Z,18.07
2017-11-19T01:06:41.150Z,18.20
2017-11-19T01:09:09.525Z,21.00
2017-11-19T01:11:37.867Z,24.33
2017-11-19T01:14:06.255Z,25.87
2017-11-19T01:16:35.426Z,23.90
2017-11-19T01:19:03.794Z,19.40
2017-11-19T01:21:33.455Z,17.70
2017-11-19T01:24:02.589Z,20.70
2017-11-19T01:26:30.943Z,18.13
2017-11-19T01:28:59.276Z,21.87
2017-11-19T01:31:27.699Z,19.50
2017-11-19T01:33:55.707Z,19.80
2017-11-19T01:36:24.048Z,17.33
2017-11-19T01:38:52.613Z,21.90
2017-11-19T01:41:20.982Z,13.97
2017-11-19T01:43:49.359Z,14.00
2017-11-19T01:46:17.896Z,22.67
2017-11-19T01:48:47.197Z,13.97
2017-11-19T01:51:15.649Z,14.83
2017-11-19T01:53:43.954Z,11.57
2017-11-19T01:56:13.113Z,12.47
2017-11-19T01:58:41.509Z,15.20
2017-11-19T02:01:09.828Z,14.80
2017-11-19T02:03:38.169Z,18.03
2017-11-19T02:06:06.686Z,10.90
2017-11-19T02:08:35.172Z,19.30
2017-11-19T02:11:03.226Z,16.77
2017-11-19T02:13:31.725Z,14.13
2017-11-19T02:16:00.804Z,15.40
2017-11-19T02:18:29.138Z,14.43
2017-11-19T02:20:57.488Z,16.50
2017-11-19T02:23:27.147Z,18.10
2017-11-19T02:25:55.690Z,17.00
2017-11-19T02:28:24.620Z,20.60
2017-11-19T02:30:53.527Z,17.90
2017-11-19T02:33:22.675Z,14.43
2017-11-19T02:35:51.786Z,14.40
2017-11-19T02:38:20.177Z,13.13
2017-11-19T02:40:48.510Z,16.60
2017-11-19T02:43:17.770Z,17.60
2017-11-19T02:45:46.171Z,9.33
2017-11-19T02:48:14.704Z,9.53
2017-11-19T02:50:43.083Z,15.10
2017-11-19T02:53:11.418Z,13.83
2017-11-19T02:55:39.764Z,11.77
2017-11-19T02:58:08.106Z,11.60
2017-11-19T03:00:37.098Z,14.37
2017-11-19T03:03:05.416Z,9.80
2017-11-19T03:05:34.099Z,12.10
2017-11-19T03:08:02.533Z,11.47
2017-11-19T03:10:30.604Z,13.00
2017-11-19T03:12:58.938Z,12.33
2017-11-19T03:15:27.146Z,13.77
2017-11-19T03:17:55.629Z,17.10
2017-11-19T03:20:23.952Z,14.70
2017-11-19T03:22:52.275Z,12.70
2017-11-19T03:25:20.606Z,10.50
2017-11-19T03:27:48.929Z,16.03
2017-11-19T03:30:17.253Z,14.23
2017-11-19T03:32:45.780Z,14.30
2017-11-19T03:35:14.155Z,12.63
2017-11-19T03:37:43.373Z,11.23
2017-11-19T03:40:11.732Z,10.70
2017-11-19T03:42:40.248Z,10.70
2017-11-19T03:45:08.643Z,12.07
2017-11-19T03:47:37.372Z,14.73
2017-11-19T03:50:05.709Z,10.67
2017-11-19T03:52:34.040Z,11.40
2017-11-19T03:55:02.363Z,15.20
2017-11-19T03:57:30.911Z,10.40
2017-11-19T03:59:59.450Z,13.37
2017-11-19T04:02:27.762Z,8.77
2017-11-19T04:04:56.286Z,15.73
2017-11-19T04:07:25.294Z,9.80
2017-11-19T04:09:53.776Z,10.83
2017-11-19T04:12:22.108Z,10.50
2017-11-19T04:14:50.435Z,11.27
2017-11-19T04:17:19.398Z,9.70
2017-11-19T04:19:48.444Z,11.83
2017-11-19T04:22:16.959Z,12.70
2017-11-19T04:24:45.310Z,9.03
2017-11-19T04:27:14.398Z,8.47
2017-11-19T04:29:43.465Z,9.20
2017-11-19T04:32:11.995Z,6.17
2017-11-19T04:34:40.324Z,6.37
2017-11-19T04:37:09.287Z,9.00
2017-11-19T04:39:37.777Z,5.13
2017-11-19T04:42:05.773Z,10.60
2017-11-19T04:44:34.111Z,11.40
2017-11-19T04:47:02.459Z,7.90
2017-11-19T04:49:30.979Z,8.77
2017-11-19T04:51:59.337Z,10.07
2017-11-19T04:54:27.663Z,12.60
2017-11-19T04:56:55.987Z,9.03
2017-11-19T04:59:25.059Z,10.20
2017-11-19T05:01:54.213Z,7.47
2017-11-19T05:04:22.855Z,10.20
2017-11-19T05:06:51.206Z,8.17
2017-11-19T05:09:19.603Z,9.83
2017-11-19T05:11:47.924Z,7.10
2017-11-19T05:14:16.469Z,14.73
2017-11-19T05:16:45.004Z,14.30
2017-11-19T05:19:13.630Z,8.17
2017-11-19T05:21:41.982Z,9.53
2017-11-19T05:24:11.097Z,5.13
2017-11-19T05:26:39.576Z,8.00
2017-11-19T05:29:08.974Z,13.53
2017-11-19T05:31:37.287Z,7.70
2017-11-19T05:34:06.096Z,7.40
2017-11-19T05:36:35.068Z,9.87
2017-11-19T05:39:03.051Z,10.00
2017-11-19T05:41:31.572Z,8.93
2017-11-19T05:43:59.960Z,7.33
2017-11-19T05:46:28.428Z,5.77
2017-11-19T05:48:56.797Z,16.13
2017-11-19T05:51:25.136Z,10.30
2017-11-19T05:53:53.691Z,10.90
2017-11-19T05:56:22.023Z,10.27
2017-11-19T05:58:50.611Z,6.73
2017-11-19T06:01:18.778Z,12.00
2017-11-19T06:03:47.099Z,10.87
2017-11-19T06:06:15.416Z,4.70
2017-11-19T06:08:43.832Z,10.30
2017-11-19T06:11:12.873Z,12.23
2017-11-19T06:13:42.196Z,13.70
2017-11-19T06:16:10.520Z,9.40
2017-11-19T06:18:39.158Z,6.90
2017-11-19T06:21:07.485Z,15.83
2017-11-19T06:23:36.584Z,11.93
2017-11-19T06:26:05.699Z,12.07
2017-11-19T06:28:34.062Z,15.03
2017-11-19T06:31:02.569Z,9.40
2017-11-19T06:33:30.928Z,11.27
2017-11-19T06:36:00.024Z,12.07
2017-11-19T06:38:29.107Z,11.53
2017-11-19T06:40:57.446Z,14.03
2017-11-19T06:43:25.793Z,11.50
2017-11-19T06:45:54.320Z,12.57
2017-11-19T06:48:22.645Z,9.70
2017-11-19T06:50:51.079Z,13.90
2017-11-19T06:53:20.177Z,17.77
2017-11-19T06:55:48.531Z,11.37
2017-11-19T06:58:16.878Z,8.57
2017-11-19T07:00:45.208Z,11.83
2017-11-19T07:03:13.710Z,10.93
2017-11-19T07:05:42.038Z,9.87
2017-11-19T07:08:10.372Z,7.33
2017-11-19T07:10:38.983Z,11.53
2017-11-19T07:13:07.533Z,8.00
2017-11-19T07:15:35.893Z,10.27
2017-11-19T07:18:03.609Z,9.50
2017-11-19T07:20:31.314Z,15.47
2017-11-19T07:22:59.644Z,9.70
2017-11-19T07:25:27.968Z,8.73
2017-11-19T07:27:56.119Z,8.30
2017-11-19T07:30:23.605Z,6.53
2017-11-19T07:32:51.750Z,10.30
2017-11-19T07:35:20.069Z,9.60
2017-11-19T07:37:48.070Z,9.53
2017-11-19T07:40:16.447Z,9.10
2017-11-19T07:42:44.858Z,10.30
2017-11-19T07:45:14.006Z,9.27
2017-11-19T07:47:43.003Z,8.40
2017-11-19T07:50:11.353Z,11.13
2017-11-19T07:52:39.073Z,7.73
2017-11-19T07:55:07.450Z,6.90
2017-11-19T07:57:35.768Z,10.17
2017-11-19T08:00:03.815Z,9.80
2017-11-19T08:02:32.356Z,5.97
2017-11-19T08:05:01.509Z,10.07
2017-11-19T08:07:30.820Z,8.87
2017-11-19T08:09:59.154Z,9.10
2017-11-19T08:12:27.522Z,7.23
2017-11-19T08:14:55.891Z,7.47
2017-11-19T08:17:24.214Z,14.47
2017-11-19T08:19:52.436Z,8.67
2017-11-19T08:22:20.772Z,10.67
2017-11-19T08:24:49.104Z,13.63
2017-11-19T08:27:17.440Z,13.77
2017-11-19T08:29:45.873Z,8.00
2017-11-19T08:32:14.238Z,11.77
2017-11-19T08:34:42.695Z,4.50
2017-11-19T08:37:11.070Z,7.00
2017-11-19T08:39:39.392Z,7.60
2017-11-19T08:42:07.729Z,8.93
2017-11-19T08:44:36.058Z,5.37
2017-11-19T08:47:04.597Z,7.93
2017-11-19T08:49:32.940Z,7.60
2017-11-19T08:52:01.269Z,7.57
2017-11-19T08:54:29.602Z,11.57
2017-11-19T08:56:57.940Z,7.30
2017-11-19T08:59:26.294Z,5.07
2017-11-19T09:01:54.640Z,8.13
2017-11-19T09:04:22.978Z,11.50
2017-11-19T09:06:51.322Z,8.37
2017-11-19T09:09:19.959Z,12.90
2017-11-19T09:11:48.272Z,7.47
2017-11-19T09:14:17.022Z,7.30
2017-11-19T09:16:45.431Z,6.53
2017-11-19T09:19:13.982Z,10.73
2017-11-19T09:21:42.318Z,13.33
2017-11-19T09:24:10.829Z,7.53
2017-11-19T09:26:39.203Z,8.70
2017-11-19T09:29:07.548Z,4.93
2017-11-19T09:31:36.088Z,9.73
2017-11-19T09:34:04.649Z,13.33
2017-11-19T09:36:33.045Z,9.23
2017-11-19T09:39:01.395Z,7.60
2017-11-19T09:41:29.724Z,7.90
2017-11-19T09:43:58.064Z,6.37
2017-11-19T09:46:26.394Z,7.70
2017-11-19T09:48:54.730Z,8.10
2017-11-19T09:51:23.144Z,7.77
2017-11-19T09:53:51.542Z,9.83
2017-11-19T09:56:19.717Z,8.20
2017-11-19T09:58:48.050Z,12.97
2017-11-19T10:01:16.450Z,5.87
2017-11-19T10:03:44.801Z,9.70
2017-11-19T10:06:13.148Z,8.57
2017-11-19T10:08:41.812Z,8.30
2017-11-19T10:11:10.319Z,8.63
2017-11-19T10:13:38.856Z,8.20
2017-11-19T10:16:07.188Z,18.57
2017-11-19T10:18:35.732Z,9.27
2017-11-19T10:21:04.056Z,11.30
2017-11-19T10:23:32.380Z,12.50
2017-11-19T10:26:00.844Z,10.53
2017-11-19T10:28:29.214Z,13.20
2017-11-19T10:30:57.568Z,12.27
2017-11-19T10:33:26.654Z,7.40
2017-11-19T10:35:55.180Z,11.70
2017-11-19T10:38:23.531Z,16.50
2017-11-19T10:40:51.858Z,12.73
2017-11-19T10:43:20.196Z,14.30
2017-11-19T10:45:48.576Z,9.67
2017-11-19T10:48:17.115Z,13.70
2017-11-19T10:50:46.424Z,11.83
2017-11-19T10:53:14.754Z,6.63
2017-11-19T10:55:43.097Z,6.93
2017-11-19T10:58:11.469Z,7.23
2017-11-19T11:00:39.868Z,8.13
2017-11-19T11:03:08.205Z,13.73
2017-11-19T11:05:36.595Z,14.73
2017-11-19T11:08:04.668Z,11.30
2017-11-19T11:10:32.714Z,13.20
2017-11-19T11:13:01.064Z,11.50
2017-11-19T11:15:29.422Z,22.10
2017-11-19T11:17:57.758Z,10.00
2017-11-19T11:20:26.298Z,16.10
2017-11-19T11:22:55.416Z,10.60
2017-11-19T11:25:23.956Z,11.03
2017-11-19T11:27:52.304Z,20.63
2017-11-19T11:30:20.725Z,14.10
2017-11-19T11:32:49.282Z,13.40
2017-11-19T11:35:17.800Z,10.30
2017-11-19T11:37:46.136Z,10.10
2017-11-19T11:40:14.481Z,13.87
2017-11-19T11:42:42.814Z,10.40
2017-11-19T11:45:11.917Z,10.80
2017-11-19T11:47:40.272Z,11.93
2017-11-19T11:50:08.810Z,10.70
2017-11-19T11:52:37.746Z,17.20
2017-11-19T11:55:06.264Z,22.07
2017-11-19T11:57:35.373Z,13.70
2017-11-19T12:00:03.626Z,21.23
2017-11-19T12:02:31.961Z,14.37
2017-11-19T12:05:00.303Z,15.43
2017-11-19T12:07:29.684Z,11.03
2017-11-19T12:09:58.053Z,15.03
2017-11-19T12:12:26.398Z,11.90
2017-11-19T12:14:55.522Z,15.77
2017-11-19T12:17:24.367Z,10.87
2017-11-19T12:19:52.708Z,12.43
2017-11-19T12:22:21.046Z,9.50
2017-11-19T12:24:49.368Z,17.03
2017-11-19T12:27:17.775Z,13.90
2017-11-19T12:29:46.886Z,13.07
2017-11-19T12:32:15.235Z,15.37
2017-11-19T12:34:43.663Z,16.77
2017-11-19T12:37:12.002Z,12.03
2017-11-19T12:39:45.941Z,12.27
2017-11-19T12:42:14.265Z,19.00
2017-11-19T12:44:43.585Z,10.80
2017-11-19T12:47:12.092Z,17.47
2017-11-19T12:49:40.429Z,14.23
2017-11-19T12:52:08.945Z,18.37
2017-11-19T12:54:37.280Z,21.53
2017-11-19T12:57:05.909Z,16.90
2017-11-19T12:59:35.186Z,19.77
2017-11-19T13:02:03.537Z,12.20
2017-11-19T13:04:31.884Z,18.60
2017-11-19T13:07:00.232Z,15.33
2017-11-19T13:09:28.571Z,9.30
2017-11-19T13:11:57.820Z,14.33
2017-11-19T13:14:26.273Z,12.17
2017-11-19T13:16:54.897Z,12.00
2017-11-19T13:19:23.411Z,14.90
2017-11-19T13:21:55.940Z,8.60
2017-11-19T13:24:24.092Z,13.83
2017-11-19T13:26:52.459Z,13.53
2017-11-19T13:29:20.931Z,15.03
2017-11-19T13:31:49.307Z,11.30
2017-11-19T13:34:17.652Z,11.33
2017-11-19T13:36:46.948Z,12.67
2017-11-19T13:39:16.082Z,9.87
2017-11-19T13:41:44.419Z,12.30
2017-11-19T13:44:12.747Z,10.27
2017-11-19T13:46:41.084Z,9.80
2017-11-19T13:49:09.289Z,19.43
2017-11-19T13:51:37.655Z,10.30
2017-11-19T13:54:06.047Z,10.67
2017-11-19T13:56:34.382Z,14.70
2017-11-19T13:59:02.731Z,14.83
2017-11-19T14:01:31.097Z,10.90
2017-11-19T14:03:59.441Z,16.63
2017-11-19T14:06:27.781Z,14.53
2017-11-19T14:08:56.136Z,11.07
2017-11-19T14:11:25.248Z,14.20
2017-11-19T14:13:53.774Z,6.33
2017-11-19T14:16:22.221Z,11.80
2017-11-19T14:18:50.597Z,11.67
2017-11-19T14:21:18.926Z,11.30
2017-11-19T14:23:48.270Z,12.30
2017-11-19T14:26:16.716Z,11.00
2017-11-19T14:28:45.282Z,17.50
2017-11-19T14:31:13.612Z,6.10
2017-11-19T14:33:41.946Z,10.30
2017-11-19T14:36:10.458Z,15.23
2017-11-19T14:38:41.138Z,14.00
2017-11-19T14:41:09.472Z,9.13
2017-11-19T14:43:38.014Z,11.90
2017-11-19T14:46:06.380Z,9.90
2017-11-19T14:48:35.513Z,8.47
2017-11-19T15:00:43.859Z,9.90
2017-11-19T15:03:14.919Z,9.83
2017-11-19T15:05:43.267Z,9.73
2017-11-19T15:08:11.616Z,10.67
2017-11-19T15:10:40.143Z,7.20
2017-11-19T15:13:08.678Z,12.07
2017-11-19T15:15:36.708Z,11.63
2017-11-19T15:18:05.076Z,6.67
2017-11-19T15:20:33.430Z,9.20
2017-11-19T15:23:01.792Z,11.70
2017-11-19T15:25:32.603Z,10.37
2017-11-19T15:28:00.967Z,10.30
2017-11-19T15:30:29.316Z,9.90
2017-11-19T15:32:57.865Z,8.17
2017-11-19T15:35:27.401Z,10.67
2017-11-19T15:37:55.733Z,7.33
2017-11-19T15:40:24.854Z,10.33
2017-11-19T15:42:53.200Z,9.37
2017-11-19T15:45:22.088Z,11.53
2017-11-19T15:47:50.628Z,8.47
2017-11-19T15:50:19.164Z,11.57
2017-11-19T15:52:47.496Z,10.00
2017-11-19T15:55:18.520Z,13.63
2017-11-19T15:57:46.852Z,13.17
2017-11-19T16:00:15.609Z,13.73
2017-11-19T16:02:43.980Z,11.70
2017-11-19T16:05:12.320Z,13.47
2017-11-19T16:07:40.646Z,8.47
2017-11-19T16:10:10.504Z,10.13
2017-11-19T16:12:38.853Z,9.30
2017-11-19T16:15:09.064Z,7.13
2017-11-19T16:17:37.417Z,9.17
2017-11-19T16:20:05.781Z,11.40
2017-11-19T16:22:34.103Z,10.10
2017-11-19T16:25:02.477Z,7.83
2017-11-19T16:27:30.891Z,10.73
2017-11-19T16:29:59.297Z,8.70
2017-11-19T16:32:27.476Z,8.07
2017-11-19T16:34:56.797Z,6.07
2017-11-19T16:37:25.126Z,10.20
2017-11-19T16:39:53.655Z,7.73
2017-11-19T16:42:22.958Z,2.80
2017-11-19T16:44:51.432Z,9.00
2017-11-19T16:47:19.767Z,8.00
2017-11-19T16:49:48.103Z,6.37
2017-11-19T16:52:16.455Z,9.27
2017-11-19T16:54:44.833Z,8.77
2017-11-19T16:57:13.165Z,12.87
2017-11-19T16:59:41.581Z,8.90
2017-11-19T17:02:09.932Z,13.67
2017-11-19T17:04:39.051Z,11.93
2017-11-19T17:07:07.395Z,12.87
2017-11-19T17:09:35.739Z,7.53
2017-11-19T17:12:04.800Z,11.53
2017-11-19T17:14:33.159Z,12.83
2017-11-19T17:17:01.509Z,10.47
2017-11-19T17:19:29.861Z,7.10
2017-11-19T17:21:58.235Z,11.57
2017-11-19T17:24:26.575Z,7.47
2017-11-19T17:26:55.106Z,8.23
2017-11-19T17:29:23.816Z,7.10
2017-11-19T17:31:52.143Z,9.07
2017-11-19T17:34:20.470Z,7.83
2017-11-19T17:36:48.816Z,6.80
2017-11-19T17:39:17.139Z,3.90
2017-11-19T17:41:45.681Z,4.57
2017-11-19T17:44:14.828Z,5.80
2017-11-19T17:46:44.206Z,5.70
2017-11-19T17:49:12.534Z,5.57
2017-11-19T17:51:40.956Z,2.70
2017-11-19T17:54:09.279Z,2.73
2017-11-19T17:56:37.621Z,3.27
2017-11-19T17:59:05.971Z,8.30
2017-11-19T18:01:34.332Z,7.43
2017-11-19T18:04:02.733Z,7.87
2017-11-19T18:06:31.057Z,10.90
2017-11-19T18:08:59.466Z,14.20
2017-11-19T18:11:27.865Z,17.57
2017-11-19T18:13:56.201Z,12.50
2017-11-19T18:16:24.545Z,13.67
2017-11-19T18:18:52.929Z,19.63
2017-11-19T18:21:21.371Z,19.47
2017-11-19T18:23:49.763Z,22.97
2017-11-19T18:26:18.103Z,22.50
2017-11-19T18:28:46.453Z,20.63
2017-11-19T18:31:15.580Z,16.93
2017-11-19T18:33:44.232Z,18.20
2017-11-19T18:36:13.369Z,24.10
2017-11-19T18:38:41.739Z,17.80
2017-11-19T18:41:10.072Z,26.57
2017-11-19T18:43:38.520Z,17.73
2017-11-19T18:46:06.970Z,16.93
2017-11-19T18:48:35.349Z,22.73
2017-11-19T18:51:03.780Z,16.07
2017-11-19T18:53:32.108Z,14.73
2017-11-19T18:56:01.612Z,16.70
2017-11-19T18:58:29.950Z,21.73
2017-11-19T19:00:58.313Z,19.77
2017-11-19T19:03:26.659Z,23.50
2017-11-19T19:05:55.240Z,22.67
2017-11-19T19:08:23.565Z,14.00
2017-11-19T19:10:52.682Z,19.10
2017-11-19T19:13:21.302Z,16.70
2017-11-19T19:15:49.641Z,14.73
2017-11-19T19:18:18.008Z,10.40
2017-11-19T19:20:46.383Z,12.17
2017-11-19T19:23:14.723Z,15.63
2017-11-19T19:25:43.851Z,18.30
2017-11-19T19:28:12.378Z,12.83
2017-11-19T19:30:40.748Z,15.23
2017-11-19T19:33:09.087Z,17.33
2017-11-19T19:35:37.425Z,17.23
2017-11-19T19:38:06.721Z,15.13
2017-11-19T19:40:35.978Z,16.13
2017-11-19T19:43:04.339Z,17.00
2017-11-19T19:45:32.717Z,12.93
2017-11-19T19:48:01.104Z,15.87
2017-11-19T19:50:30.171Z,13.60
2017-11-19T19:52:58.511Z,19.53
2017-11-19T19:55:28.037Z,13.00
2017-11-19T19:57:56.409Z,15.23
2017-11-19T20:00:24.760Z,13.10
2017-11-19T20:02:53.424Z,12.57
2017-11-19T20:05:22.749Z,18.60
2017-11-19T20:07:52.078Z,14.70
2017-11-19T20:10:20.687Z,14.70
2017-11-19T20:12:49.305Z,16.60
2017-11-19T20:15:17.859Z,13.63
2017-11-19T20:17:47.020Z,16.13
2017-11-19T20:20:15.489Z,14.10
2017-11-19T20:22:44.772Z,8.77
2017-11-19T20:25:14.499Z,15.57
2017-11-19T20:27:42.836Z,13.63
2017-11-19T20:30:11.749Z,14.63
2017-11-19T20:32:40.136Z,10.53
2017-11-19T20:35:08.465Z,10.60
2017-11-19T20:37:37.144Z,16.20
2017-11-19T20:40:05.653Z,19.87
2017-11-19T20:42:37.823Z,15.00
2017-11-19T20:45:06.168Z,15.93
2017-11-19T20:47:34.523Z,17.50
2017-11-19T20:50:02.918Z,21.50
2017-11-19T20:52:31.309Z,10.67
2017-11-19T20:54:59.773Z,16.80
2017-11-19T20:57:28.637Z,12.87
2017-11-19T20:59:57.061Z,12.07
2017-11-19T21:02:26.082Z,15.50
2017-11-19T21:04:54.644Z,13.97
2017-11-19T21:07:23.152Z,17.30
2017-11-19T21:09:51.510Z,20.80
2017-11-19T21:12:20.481Z,15.10
2017-11-19T21:14:49.200Z,13.20
2017-11-19T21:17:18.283Z,12.23
2017-11-19T21:19:46.705Z,12.40
2017-11-19T21:22:15.213Z,15.43
2017-11-19T21:24:43.741Z,14.77
2017-11-19T21:27:12.834Z,13.50
2017-11-19T21:29:41.261Z,18.13
2017-11-19T21:32:09.684Z,18.13
2017-11-19T21:34:38.239Z,14.83
2017-11-19T21:37:06.657Z,12.80
2017-11-19T21:39:35.695Z,15.07
2017-11-19T21:42:04.094Z,17.93
2017-11-19T21:44:32.438Z,8.20
2017-11-19T21:47:01.552Z,13.50
2017-11-19T21:49:29.992Z,14.00
2017-11-19T21:51:58.902Z,8.70
2017-11-19T21:54:28.544Z,24.13
2017-11-19T21:56:57.617Z,12.63
2017-11-19T21:59:27.866Z,13.57
2017-11-19T22:01:56.264Z,17.60
2017-11-19T22:04:25.888Z,18.80
2017-11-19T22:06:54.239Z,17.20
2017-11-19T22:09:23.621Z,10.67
2017-11-19T22:11:52.389Z,10.33
2017-11-19T22:14:20.765Z,13.80
2017-11-19T22:16:49.539Z,14.80
2017-11-19T22:19:18.840Z,8.90
2017-11-19T22:21:47.107Z,15.83
2017-11-19T22:24:15.442Z,11.63
2017-11-19T22:26:43.784Z,13.03
2017-11-19T22:29:12.129Z,12.73
2017-11-19T22:31:40.468Z,11.93
2017-11-19T22:34:08.792Z,15.23
2017-11-19T22:36:37.467Z,14.60
2017-11-19T22:39:06.486Z,12.47
2017-11-19T22:41:36.471Z,17.93
2017-11-19T22:44:04.833Z,14.47
2017-11-19T22:46:33.232Z,11.70
2017-11-19T22:49:01.557Z,10.80
2017-11-19T22:51:29.893Z,7.20
2017-11-19T22:53:58.311Z,10.10
2017-11-19T22:56:26.755Z,12.27
2017-11-19T22:58:55.204Z,17.43
2017-11-19T23:01:23.636Z,19.17
2017-11-19T23:03:51.975Z,14.17
2017-11-19T23:06:20.304Z,16.53
2017-11-19T23:08:48.647Z,12.27
2017-11-19T23:11:17.214Z,13.77
2017-11-19T23:13:46.004Z,19.60
2017-11-19T23:16:14.322Z,14.37
2017-11-19T23:18:43.426Z,12.83
2017-11-19T23:21:12.001Z,12.93
2017-11-19T23:23:40.905Z,13.90
2017-11-19T23:26:09.278Z,15.27
2017-11-19T23:28:37.626Z,16.30
2017-11-19T23:31:05.959Z,24.47
2017-11-19T23:33:34.825Z,15.53
2017-11-19T23:36:03.155Z,16.80
2017-11-19T23:38:31.479Z,19.47
2017-11-19T23:41:00.550Z,14.70
2017-11-19T23:43:28.863Z,17.63
2017-11-19T23:45:57.481Z,18.37
2017-11-19T23:48:26.763Z,16.83
2017-11-19T23:50:55.091Z,15.03
2017-11-19T23:53:23.443Z,14.97
2017-11-19T23:55:52.223Z,15.63
2017-11-19T23:58:21.282Z,22.27
